Time;durP1;ratioP1;P1;durP2;ratioP2;P2;SDS_P1;SDS_P2;PMS_P1;PMS_P2;Temp;Humidity;BMP_temperature;BMP_pressure;BME280_temperature;BME280_humidity;BME280_pressure;Samples;Min_cycle;Max_cycle;Signal;HPM_P1;HPM_P2
2023/01/15 00:00:09;;;;;;;;;;;;;;;6.36;100.00;100167.41;345026;28;848;-79
2023/01/15 00:00:19;;;;;;;;;;;;;;;6.34;100.00;100170.88;343114;28;1372;-76
2023/01/15 00:00:30;;;;;;;;;;;;;;;6.32;100.00;100172.63;343418;28;1434;-77
2023/01/15 00:00:40;;;;;;;;;;;;;;;6.30;100.00;100170.94;345065;28;1260;-77
2023/01/15 00:00:50;;;;;;;;;;;;;;;6.29;100.00;100167.47;344729;28;1203;-77
2023/01/15 00:01:01;;;;;;;;;;;;;;;6.29;100.00;100164.88;343920;28;1603;-76
2023/01/15 00:01:18;;;;;;;;;;;;;;;6.30;100.00;100164.00;341781;28;1132;-77
2023/01/15 00:01:30;;;;;;;;;;;;;;;6.31;100.00;100168.31;340188;29;1855;-77
2023/01/15 00:01:41;;;;;;;;;;;;;;;6.31;100.00;100165.72;336019;29;1274;-77
2023/01/15 00:01:51;;;;;;;;;;;;;;;6.31;100.00;100160.53;336486;29;1771;-77
2023/01/15 00:02:02;;;;;;;;;;;;;;;6.32;100.00;100167.44;334488;29;2273;-77
2023/01/15 00:02:15;;;;;;;;;;;;;;;6.32;100.00;100170.03;332934;29;1600;-77
2023/01/15 00:02:25;;;;;;;;;;;;;;;6.31;100.00;100170.91;334427;29;1365;-77
2023/01/15 00:02:36;;;;;;;;;;;;;;;6.33;100.00;100169.16;333996;29;1253;-77
2023/01/15 00:02:47;;;;;;;;;;;;;;;6.34;100.00;100163.06;331659;29;1403;-78
2023/01/15 00:02:57;;;;;;;;;;;;;;;6.34;100.00;100168.28;329021;29;1433;-78
2023/01/15 00:03:07;;;;;;;;;;;;;;;6.34;100.00;100165.69;326578;30;5936;-76
2023/01/15 00:03:17;;;;;;;;;;;;;;;6.34;100.00;100170.88;326314;30;3390;-76
2023/01/15 00:03:28;;;;;;;;;;;;;;;6.34;100.00;100167.41;325143;30;2482;-77
2023/01/15 00:03:39;;;;;;;;;;;;;;;6.36;100.00;100170.00;323700;30;1800;-77
2023/01/15 00:03:51;;;;;;;;;;;;;;;6.37;100.00;100169.13;323448;30;3860;-77
2023/01/15 00:04:04;;;;;;;;;;;;;;;6.34;100.00;100160.47;322929;30;2852;-77
2023/01/15 00:04:16;;;;;;;;;;;;;;;6.36;100.00;100172.59;321542;30;5956;-77
2023/01/15 00:04:27;;;;;;;;;;;;;;;6.35;100.00;100171.72;322247;30;2467;-78
2023/01/15 00:04:37;;;;;;;;;;;;;;;6.37;100.00;100166.50;322383;30;1094;-77
2023/01/15 00:04:49;;;;;;;;;;;;;;;6.39;100.00;100164.75;318849;30;6356;-78
2023/01/15 00:05:02;;;;;;;;;;;;;;;6.39;100.00;100163.00;316388;31;1854;-76
2023/01/15 00:05:12;;;;;;;;;;;;;;;6.40;100.00;100166.47;310632;31;5952;-77
2023/01/15 00:05:22;;;;;;;;;;;;;;;6.39;100.00;100167.34;308018;31;3944;-77
2023/01/15 00:05:35;;;;;;;;;;;;;;;6.39;100.00;100172.56;308082;31;2997;-77
2023/01/15 00:05:45;;;;;;;;;;;;;;;6.40;100.00;100169.06;306346;31;3562;-76
2023/01/15 00:05:56;;;;;;;;;;;;;;;6.41;100.00;100170.78;307041;32;1243;-78
2023/01/15 00:06:06;;;;;;;;;;;;;;;6.42;100.00;100162.09;301398;32;3431;-75
2023/01/15 00:06:16;;;;;;;;;;;;;;;6.40;100.00;100169.06;300144;32;6012;-76
2023/01/15 00:06:27;;;;;;;;;;;;;;;6.38;100.00;100170.84;303064;32;3504;-76
2023/01/15 00:06:38;;;;;;;;;;;;;;;6.36;100.00;100172.59;300984;32;3264;-77
2023/01/15 00:06:48;;;;;;;;;;;;;;;6.34;100.00;100170.03;298204;32;4059;-77
2023/01/15 00:06:58;;;;;;;;;;;;;;;6.33;100.00;100163.09;296629;33;2240;-76
2023/01/15 00:07:08;;;;;;;;;;;;;;;6.31;100.00;100164.88;292313;33;3714;-77
2023/01/15 00:07:19;;;;;;;;;;;;;;;6.26;100.00;100167.53;294247;33;3451;-78
2023/01/15 00:07:29;;;;;;;;;;;;;;;6.24;100.00;100173.63;292827;33;4030;-77
2023/01/15 00:07:40;;;;;;;;;;;;;;;6.22;100.00;100173.66;288705;34;2118;-77
2023/01/15 00:07:51;;;;;;;;;;;;;;;6.20;100.00;100170.22;290059;33;4821;-77
2023/01/15 00:08:01;;;;;;;;;;;;;;;6.22;100.00;100171.06;287829;33;4572;-77
2023/01/15 00:08:13;;;;;;;;;;;;;;;6.21;100.00;100165.88;289582;34;3428;-77
2023/01/15 00:08:24;;;;;;;;;;;;;;;6.21;100.00;100169.31;288159;34;6733;-78
2023/01/15 00:08:34;;;;;;;;;;;;;;;6.19;100.00;100176.28;286313;34;7151;-78
2023/01/15 00:08:44;;;;;;;;;;;;;;;6.19;100.00;100167.63;286452;34;5624;-78
2023/01/15 00:08:54;;;;;;;;;;;;;;;6.18;100.00;100174.56;284339;34;1315;-77
2023/01/15 00:09:05;;;;;;;;;;;;;;;6.18;100.00;100169.38;279939;34;6033;-77
2023/01/15 00:09:15;;;;;;;;;;;;;;;6.19;100.00;100165.03;277854;34;6153;-77
2023/01/15 00:09:26;;;;;;;;;;;;;;;6.19;100.00;100167.63;279250;35;3620;-77
2023/01/15 00:09:36;;;;;;;;;;;;;;;6.23;100.00;100169.31;279757;35;4572;-77
2023/01/15 00:09:47;;;;;;;;;;;;;;;6.23;100.00;100167.56;277439;35;8172;-77
2023/01/15 00:11:27;;;;;;;;;;;;;;;6.23;100.00;100170.16;2495492;27;19936;-76
2023/01/15 00:11:37;;;;;;;;;;;;;;;6.24;100.00;100173.63;353238;28;1249;-78
2023/01/15 00:11:48;;;;;;;;;;;;;;;6.23;100.00;100175.38;351859;28;1215;-78
2023/01/15 00:11:58;;;;;;;;;;;;;;;6.24;100.00;100168.44;352058;28;851;-78
2023/01/15 00:12:09;;;;;;;;;;;;;;;6.24;100.00;100169.28;350446;28;1313;-78
2023/01/15 00:12:19;;;;;;;;;;;;;;;6.24;100.00;100171.03;350829;28;839;-78
2023/01/15 00:12:29;;;;;;;;;;;;;;;6.25;100.00;100168.41;349163;28;559;-77
2023/01/15 00:12:39;;;;;;;;;;;;;;;6.27;100.00;100171.84;350243;28;1323;-77
2023/01/15 00:12:50;;;;;;;;;;;;;;;6.27;100.00;100166.66;349057;28;1218;-77
2023/01/15 00:13:00;;;;;;;;;;;;;;;6.27;100.00;100171.84;347145;28;1234;-77
2023/01/15 00:13:11;;;;;;;;;;;;;;;6.28;100.00;100172.69;346318;28;1213;-76
2023/01/15 00:13:21;;;;;;;;;;;;;;;6.27;100.00;100169.25;346378;28;1300;-77
2023/01/15 00:13:31;;;;;;;;;;;;;;;6.26;100.00;100172.72;347583;28;1282;-76
2023/01/15 00:13:41;;;;;;;;;;;;;;;6.28;100.00;100170.97;347731;28;1459;-76
2023/01/15 00:13:52;;;;;;;;;;;;;;;6.27;100.00;100171.84;346972;28;1295;-77
2023/01/15 00:14:02;;;;;;;;;;;;;;;6.30;100.00;100173.53;347306;28;1094;-77
2023/01/15 00:14:12;;;;;;;;;;;;;;;6.30;100.00;100174.41;347572;28;1316;-77
2023/01/15 00:14:22;;;;;;;;;;;;;;;6.32;100.00;100171.78;345015;28;1325;-77
2023/01/15 00:14:33;;;;;;;;;;;;;;;6.33;100.00;100176.97;344967;28;860;-77
2023/01/15 00:14:43;;;;;;;;;;;;;;;6.33;100.00;100174.34;345049;28;816;-78
2023/01/15 00:14:53;;;;;;;;;;;;;;;6.33;100.00;100176.97;350197;28;1293;-76
2023/01/15 00:15:04;;;;;;;;;;;;;;;6.33;100.00;100173.50;350693;28;1567;-77
2023/01/15 00:15:15;;;;;;;;;;;;;;;6.31;100.00;100170.91;351762;28;1192;-77
2023/01/15 00:15:26;;;;;;;;;;;;;;;6.30;100.00;100177.00;347607;28;1306;-78
2023/01/15 00:15:36;;;;;;;;;;;;;;;6.29;100.00;100172.69;350301;28;1348;-76
2023/01/15 00:15:46;;;;;;;;;;;;;;;6.28;100.00;100176.16;349140;28;1446;-76
2023/01/15 00:16:06;;;;;;;;;;;;;;;6.29;100.00;100177.03;351770;28;1217;-76
2023/01/15 00:16:17;;;;;;;;;;;;;;;6.25;100.00;100175.34;346237;28;1234;-77
2023/01/15 00:16:27;;;;;;;;;;;;;;;6.24;100.00;100176.22;347624;28;1344;-77
2023/01/15 00:16:39;;;;;;;;;;;;;;;6.24;100.00;100176.22;350468;28;839;-76
2023/01/15 00:16:51;;;;;;;;;;;;;;;6.22;100.00;100176.25;348543;28;907;-77
2023/01/15 00:17:01;;;;;;;;;;;;;;;6.23;100.00;100172.75;347637;28;841;-77
2023/01/15 00:17:11;;;;;;;;;;;;;;;6.26;100.00;100175.31;347632;28;1227;-77
2023/01/15 00:17:21;;;;;;;;;;;;;;;6.28;100.00;100176.16;344073;28;1220;-77
2023/01/15 00:17:32;;;;;;;;;;;;;;;6.29;100.00;100183.09;341564;28;4099;-77
2023/01/15 00:17:42;;;;;;;;;;;;;;;6.30;100.00;100174.41;341936;28;3288;-77
2023/01/15 00:17:52;;;;;;;;;;;;;;;6.31;100.00;100170.91;343931;28;3745;-77
2023/01/15 00:18:02;;;;;;;;;;;;;;;6.31;100.00;100173.53;341863;28;1970;-78
2023/01/15 00:18:12;;;;;;;;;;;;;;;6.29;100.00;100177.03;340017;29;3558;-77
2023/01/15 00:18:23;;;;;;;;;;;;;;;6.26;100.00;100177.94;337865;29;1283;-77
2023/01/15 00:18:33;;;;;;;;;;;;;;;6.24;100.00;100174.47;337816;28;5193;-76
2023/01/15 00:18:48;;;;;;;;;;;;;;;6.24;100.00;100177.09;340204;29;3538;-77
2023/01/15 00:18:58;;;;;;;;;;;;;;;6.25;100.00;100168.41;342171;28;2052;-77
2023/01/15 00:19:09;;;;;;;;;;;;;;;6.28;100.00;100170.09;340144;29;3511;-78
2023/01/15 00:19:20;;;;;;;;;;;;;;;6.27;100.00;100171.84;337501;29;1252;-77
2023/01/15 00:19:31;;;;;;;;;;;;;;;6.28;100.00;100172.69;335443;29;3835;-77
2023/01/15 00:19:41;;;;;;;;;;;;;;;6.28;100.00;100173.56;332268;29;3738;-78
2023/01/15 00:19:51;;;;;;;;;;;;;;;6.29;100.00;100172.69;336571;29;1316;-77
2023/01/15 00:20:02;;;;;;;;;;;;;;;6.29;100.00;100177.03;338418;29;1873;-78
2023/01/15 00:20:13;;;;;;;;;;;;;;;6.29;100.00;100172.69;338835;29;3709;-78
2023/01/15 00:20:23;;;;;;;;;;;;;;;6.29;100.00;100177.88;340265;28;3543;-77
2023/01/15 00:20:34;;;;;;;;;;;;;;;6.27;100.00;100179.63;336429;29;6003;-77
2023/01/15 00:20:44;;;;;;;;;;;;;;;6.27;100.00;100178.78;337740;29;3479;-77
2023/01/15 00:21:00;;;;;;;;;;;;;;;6.23;100.00;100183.16;338407;29;1774;-77
2023/01/15 00:21:12;;;;;;;;;;;;;;;6.21;100.00;100178.88;334372;29;3749;-77
2023/01/15 00:21:22;;;;;;;;;;;;;;;6.23;100.00;100172.75;337207;29;3798;-77
2023/01/15 00:21:32;;;;;;;;;;;;;;;6.25;100.00;100176.22;333000;29;4367;-76
2023/01/15 00:21:42;;;;;;;;;;;;;;;6.24;100.00;100179.69;334233;29;6283;-77
2023/01/15 00:21:53;;;;;;;;;;;;;;;6.26;100.00;100172.72;332376;29;1855;-77
2023/01/15 00:22:03;;;;;;;;;;;;;;;6.26;100.00;100177.94;328455;29;3449;-77
2023/01/15 00:22:13;;;;;;;;;;;;;;;6.27;100.00;100174.44;326296;30;1331;-77
2023/01/15 00:22:23;;;;;;;;;;;;;;;6.28;100.00;100175.31;328434;29;3838;-76
2023/01/15 00:22:34;;;;;;;;;;;;;;;6.28;100.00;100176.16;324877;30;3203;-76
2023/01/15 00:22:44;;;;;;;;;;;;;;;6.30;100.00;100174.41;323697;30;3596;-76
2023/01/15 00:22:54;;;;;;;;;;;;;;;6.31;100.00;100176.13;327140;30;2048;-78
2023/01/15 00:23:04;;;;;;;;;;;;;;;6.30;100.00;100179.59;327678;29;3632;-77
2023/01/15 00:27:37;;;;;;;;;;;;;;;6.29;100.00;100171.81;324841;30;1266;-77
2023/01/15 00:27:41;;;;;;;;;;;;;;;6.10;100.00;100176.41;304110;32;5915;-77
2023/01/15 00:27:51;;;;;;;;;;;;;;;6.11;100.00;100167.72;305248;32;3551;-78
2023/01/15 00:28:01;;;;;;;;;;;;;;;6.11;100.00;100165.13;303731;32;4603;-78
2023/01/15 00:28:13;;;;;;;;;;;;;;;6.11;100.00;100167.72;306493;32;3407;-78
2023/01/15 00:28:23;;;;;;;;;;;;;;;6.09;100.00;100169.50;303636;32;4203;-77
2023/01/15 00:28:33;;;;;;;;;;;;;;;6.08;100.00;100167.78;303179;32;4462;-78
2023/01/15 00:28:43;;;;;;;;;;;;;;;6.09;100.00;100172.09;301851;32;3389;-77
2023/01/15 00:28:54;;;;;;;;;;;;;;;6.11;100.00;100167.72;299814;32;4264;-76
2023/01/15 00:29:04;;;;;;;;;;;;;;;6.14;100.00;100172.03;298454;32;3981;-77
2023/01/15 00:29:14;;;;;;;;;;;;;;;6.15;100.00;100169.41;298853;33;3971;-77
2023/01/15 00:29:24;;;;;;;;;;;;;;;6.16;100.00;100170.28;300081;32;3435;-77
2023/01/15 00:29:35;;;;;;;;;;;;;;;6.16;100.00;100168.53;297191;32;5809;-76
2023/01/15 00:29:45;;;;;;;;;;;;;;;6.15;100.00;100166.81;296858;33;3299;-76
2023/01/15 00:29:55;;;;;;;;;;;;;;;6.15;100.00;100179.81;291986;33;4339;-77
2023/01/15 00:30:06;;;;;;;;;;;;;;;6.16;100.00;100170.28;292579;33;5222;-77
2023/01/15 00:30:16;;;;;;;;;;;;;;;6.12;100.00;100169.44;295240;33;6182;-76
2023/01/15 00:30:27;;;;;;;;;;;;;;;6.07;100.00;100166.06;295420;33;1558;-77
2023/01/15 00:30:39;;;;;;;;;;;;;;;6.05;100.00;100165.25;289884;33;7028;-76
2023/01/15 00:30:49;;;;;;;;;;;;;;;6.06;100.00;100164.38;289619;33;7049;-76
2023/01/15 00:30:59;;;;;;;;;;;;;;;6.09;100.00;100164.28;290369;34;2126;-76
2023/01/15 00:31:12;;;;;;;;;;;;;;;6.09;100.00;100169.50;290553;33;6264;-76
2023/01/15 00:31:23;;;;;;;;;;;;;;;6.09;100.00;100168.63;289495;33;6056;-78
2023/01/15 00:31:33;;;;;;;;;;;;;;;6.10;100.00;100167.75;285750;34;6751;-77
2023/01/15 00:31:44;;;;;;;;;;;;;;;6.11;100.00;100169.47;283885;34;3596;-78
2023/01/15 00:31:58;;;;;;;;;;;;;;;6.12;100.00;100171.19;285799;34;5748;-76
2023/01/15 00:32:09;;;;;;;;;;;;;;;6.12;100.00;100166.00;282135;34;6538;-77
2023/01/15 00:32:19;;;;;;;;;;;;;;;6.13;100.00;100162.53;278632;35;8108;-77
2023/01/15 00:33:54;;;;;;;;;;;;;;;6.15;100.00;100166.81;2501590;27;19922;-77
2023/01/15 00:34:04;;;;;;;;;;;;;;;6.13;100.00;100162.53;356621;27;1794;-78
2023/01/15 00:34:14;;;;;;;;;;;;;;;6.12;100.00;100166.84;353828;27;3311;-78
2023/01/15 00:34:25;;;;;;;;;;;;;;;6.10;100.00;100166.03;353439;28;855;-78
2023/01/15 00:34:35;;;;;;;;;;;;;;;6.10;100.00;100162.56;350581;28;3271;-77
2023/01/15 00:34:45;;;;;;;;;;;;;;;6.09;100.00;100164.28;347861;28;5908;-77
2023/01/15 00:34:58;;;;;;;;;;;;;;;6.10;100.00;100160.81;349365;28;1876;-77
2023/01/15 00:35:10;;;;;;;;;;;;;;;6.12;100.00;100164.25;349926;28;1782;-77
2023/01/15 00:35:21;;;;;;;;;;;;;;;6.13;100.00;100162.53;349737;28;3873;-76
2023/01/15 00:35:32;;;;;;;;;;;;;;;6.14;100.00;100165.09;349255;28;3679;-77
2023/01/15 00:35:43;;;;;;;;;;;;;;;6.16;100.00;100162.47;347989;28;5796;-77
2023/01/15 00:35:53;;;;;;;;;;;;;;;6.16;100.00;100167.69;350475;28;3133;-77
2023/01/15 00:36:03;;;;;;;;;;;;;;;6.16;100.00;100159.88;349177;28;1753;-76
2023/01/15 00:36:13;;;;;;;;;;;;;;;6.17;100.00;100161.59;349865;28;3548;-76
2023/01/15 00:36:24;;;;;;;;;;;;;;;6.19;100.00;100167.63;349899;28;1038;-76
2023/01/15 00:36:36;;;;;;;;;;;;;;;6.20;100.00;100164.16;348342;28;3825;-77
2023/01/15 00:36:46;;;;;;;;;;;;;;;6.23;100.00;100169.31;347111;28;3546;-78
2023/01/15 00:36:57;;;;;;;;;;;;;;;6.23;100.00;100167.56;349516;28;3689;-77
2023/01/15 00:37:07;;;;;;;;;;;;;;;6.24;100.00;100171.88;352575;28;1802;-77
2023/01/15 00:37:17;;;;;;;;;;;;;;;6.26;100.00;100164.06;351176;28;3668;-77
2023/01/15 00:37:28;;;;;;;;;;;;;;;6.26;100.00;100172.72;351197;28;1206;-77
2023/01/15 00:37:38;;;;;;;;;;;;;;;6.26;100.00;100167.53;347496;28;3716;-78
2023/01/15 00:37:48;;;;;;;;;;;;;;;6.26;100.00;100170.13;348689;28;1716;-75
2023/01/15 00:37:59;;;;;;;;;;;;;;;6.26;100.00;100164.06;345570;28;1221;-76
2023/01/15 00:38:09;;;;;;;;;;;;;;;6.26;100.00;100167.53;344300;28;3523;-77
2023/01/15 00:38:19;;;;;;;;;;;;;;;6.26;100.00;100167.53;346384;28;1358;-77
2023/01/15 00:38:29;;;;;;;;;;;;;;;6.26;100.00;100164.94;345678;28;3967;-77
2023/01/15 00:38:40;;;;;;;;;;;;;;;6.27;100.00;100164.03;344445;28;5028;-77
2023/01/15 00:38:50;;;;;;;;;;;;;;;6.28;100.00;100165.75;342799;28;3330;-76
2023/01/15 00:39:00;;;;;;;;;;;;;;;6.29;100.00;100172.69;342197;28;2251;-76
2023/01/15 00:39:11;;;;;;;;;;;;;;;6.28;100.00;100170.97;343481;28;3318;-76
2023/01/15 00:39:22;;;;;;;;;;;;;;;6.29;100.00;100171.81;346138;28;1349;-76
2023/01/15 00:39:34;;;;;;;;;;;;;;;6.28;100.00;100170.97;347464;28;3684;-77
2023/01/15 00:39:44;;;;;;;;;;;;;;;6.27;100.00;100168.38;344190;28;5804;-77
2023/01/15 00:39:54;;;;;;;;;;;;;;;6.26;100.00;100171.88;342205;28;3189;-77
2023/01/15 00:40:05;;;;;;;;;;;;;;;6.26;100.00;100171.88;346082;28;1822;-78
2023/01/15 00:40:15;;;;;;;;;;;;;;;6.24;100.00;100169.28;345311;28;3375;-77
2023/01/15 00:40:26;;;;;;;;;;;;;;;6.24;100.00;100171.88;346023;28;1202;-77
2023/01/15 00:40:36;;;;;;;;;;;;;;;6.23;100.00;100171.91;341703;28;5747;-78
2023/01/15 00:40:51;;;;;;;;;;;;;;;6.19;100.00;100171.09;341221;28;3583;-78
2023/01/15 00:41:01;;;;;;;;;;;;;;;6.13;100.00;100170.31;345026;28;1830;-79
2023/01/15 00:41:12;;;;;;;;;;;;;;;6.10;100.00;100171.22;345258;28;3497;-78
2023/01/15 00:41:22;;;;;;;;;;;;;;;6.08;100.00;100167.78;344116;28;1205;-78
2023/01/15 00:41:32;;;;;;;;;;;;;;;6.06;100.00;100169.56;342440;28;4069;-78
2023/01/15 00:41:43;;;;;;;;;;;;;;;6.07;100.00;100171.25;343622;28;5518;-78
2023/01/15 00:41:53;;;;;;;;;;;;;;;6.09;100.00;100172.09;349178;28;1927;-78
2023/01/15 00:42:03;;;;;;;;;;;;;;;6.10;100.00;100171.22;348448;28;1676;-78
2023/01/15 00:42:14;;;;;;;;;;;;;;;6.13;100.00;100171.19;345203;28;3559;-78
2023/01/15 00:42:25;;;;;;;;;;;;;;;6.13;100.00;100170.31;342510;28;1284;-79
2023/01/15 00:42:35;;;;;;;;;;;;;;;6.12;100.00;100174.66;341687;28;5763;-78
2023/01/15 00:42:45;;;;;;;;;;;;;;;6.14;100.00;100174.63;337421;29;3614;-77
2023/01/15 00:42:55;;;;;;;;;;;;;;;6.13;100.00;100168.56;342416;28;1112;-77
2023/01/15 00:43:06;;;;;;;;;;;;;;;6.13;100.00;100168.56;341237;28;1769;-78
2023/01/15 00:43:16;;;;;;;;;;;;;;;6.10;100.00;100171.22;341136;29;1211;-77
2023/01/15 00:43:26;;;;;;;;;;;;;;;6.11;100.00;100169.47;341238;28;980;-78
2023/01/15 00:43:36;;;;;;;;;;;;;;;6.12;100.00;100169.44;334266;29;4021;-77
2023/01/15 00:43:47;;;;;;;;;;;;;;;6.11;100.00;100172.06;336060;29;3519;-77
2023/01/15 00:43:57;;;;;;;;;;;;;;;6.11;100.00;100162.53;335137;29;1192;-78
2023/01/15 00:44:07;;;;;;;;;;;;;;;6.11;100.00;100167.72;333212;29;1777;-78
2023/01/15 00:44:18;;;;;;;;;;;;;;;6.10;100.00;100170.34;335933;29;1774;-78
2023/01/15 00:44:28;;;;;;;;;;;;;;;6.09;100.00;100166.91;333846;29;3631;-77
2023/01/15 00:44:38;;;;;;;;;;;;;;;6.10;100.00;100173.81;331835;29;5704;-77
2023/01/15 00:44:48;;;;;;;;;;;;;;;6.10;100.00;100171.22;334906;29;3612;-78
2023/01/15 00:45:04;;;;;;;;;;;;;;;6.10;100.00;100168.63;334964;29;1777;-78
2023/01/15 00:45:15;;;;;;;;;;;;;;;6.10;100.00;100168.63;329681;29;3438;-79
2023/01/15 00:45:25;;;;;;;;;;;;;;;6.10;100.00;100166.03;330941;29;787;-78
2023/01/15 00:45:35;;;;;;;;;;;;;;;6.12;100.00;100169.44;331613;29;3924;-78
2023/01/15 00:45:45;;;;;;;;;;;;;;;6.13;100.00;100171.19;335201;29;2019;-79
2023/01/15 00:45:56;;;;;;;;;;;;;;;6.13;100.00;100160.78;332225;29;1229;-78
2023/01/15 00:46:07;;;;;;;;;;;;;;;6.13;100.00;100168.56;329317;29;1933;-78
2023/01/15 00:46:19;;;;;;;;;;;;;;;6.13;100.00;100170.31;328363;29;2192;-78
2023/01/15 00:46:29;;;;;;;;;;;;;;;6.12;100.00;100166.00;326817;30;5294;-78
2023/01/15 00:46:40;;;;;;;;;;;;;;;6.12;100.00;100168.59;328825;30;5909;-78
2023/01/15 00:46:51;;;;;;;;;;;;;;;6.12;100.00;100164.25;331170;29;2243;-78
2023/01/15 00:47:01;;;;;;;;;;;;;;;6.14;100.00;100167.69;329917;29;2528;-78
2023/01/15 00:47:13;;;;;;;;;;;;;;;6.15;100.00;100164.22;330891;29;4074;-78
2023/01/15 00:47:24;;;;;;;;;;;;;;;6.17;100.00;100167.66;324758;30;3719;-78
2023/01/15 00:47:37;;;;;;;;;;;;;;;6.16;100.00;100165.06;322910;30;5125;-78
2023/01/15 00:47:49;;;;;;;;;;;;;;;6.16;100.00;100162.47;326044;30;1990;-78
2023/01/15 00:47:59;;;;;;;;;;;;;;;6.17;100.00;100165.06;329892;29;2716;-79
2023/01/15 00:48:09;;;;;;;;;;;;;;;6.19;100.00;100171.09;325902;30;3563;-78
2023/01/15 00:48:20;;;;;;;;;;;;;;;6.18;100.00;100169.38;326718;30;2723;-77
2023/01/15 00:48:30;;;;;;;;;;;;;;;6.16;100.00;100163.34;319689;30;3894;-77
2023/01/15 00:48:40;;;;;;;;;;;;;;;6.17;100.00;100172.00;315680;31;3442;-76
2023/01/15 00:48:51;;;;;;;;;;;;;;;6.18;100.00;100165.91;318718;30;3186;-78
2023/01/15 00:49:01;;;;;;;;;;;;;;;6.17;100.00;100159.84;320136;30;3001;-77
2023/01/15 00:49:11;;;;;;;;;;;;;;;6.18;100.00;100163.31;320236;30;3974;-77
2023/01/15 00:49:21;;;;;;;;;;;;;;;6.18;100.00;100165.91;317110;31;3876;-77
2023/01/15 00:49:32;;;;;;;;;;;;;;;6.17;100.00;100162.44;313638;31;5675;-77
2023/01/15 00:49:42;;;;;;;;;;;;;;;6.18;100.00;100166.78;312914;31;3651;-77
2023/01/15 00:49:52;;;;;;;;;;;;;;;6.17;100.00;100161.59;311737;31;5596;-77
2023/01/15 00:50:03;;;;;;;;;;;;;;;6.17;100.00;100172.84;311505;31;3998;-77
2023/01/15 00:50:14;;;;;;;;;;;;;;;6.17;100.00;100156.41;307311;31;3540;-77
2023/01/15 00:50:24;;;;;;;;;;;;;;;6.17;100.00;100167.66;307794;32;3830;-77
2023/01/15 00:50:34;;;;;;;;;;;;;;;6.17;100.00;100159.84;303606;32;4037;-78
2023/01/15 00:50:45;;;;;;;;;;;;;;;6.17;100.00;100165.06;305005;31;4384;-77
2023/01/15 00:50:55;;;;;;;;;;;;;;;6.17;100.00;100167.66;303601;32;3731;-77
2023/01/15 00:51:05;;;;;;;;;;;;;;;6.19;100.00;100162.44;300309;32;4846;-77
2023/01/15 00:51:16;;;;;;;;;;;;;;;6.19;100.00;100165.91;300884;32;4792;-77
2023/01/15 00:51:26;;;;;;;;;;;;;;;6.22;100.00;100167.59;304098;32;3932;-78
2023/01/15 00:51:36;;;;;;;;;;;;;;;6.24;100.00;100165.81;301491;32;3509;-77
2023/01/15 00:51:48;;;;;;;;;;;;;;;6.25;100.00;100164.94;300077;32;3649;-77
2023/01/15 00:51:59;;;;;;;;;;;;;;;6.23;100.00;100162.38;294836;33;4005;-77
2023/01/15 00:52:09;;;;;;;;;;;;;;;6.22;100.00;100165.84;297403;33;1239;-77
2023/01/15 00:52:22;;;;;;;;;;;;;;;6.18;100.00;100164.19;294741;33;5485;-77
2023/01/15 00:52:32;;;;;;;;;;;;;;;6.13;100.00;100165.97;295936;33;5319;-78
2023/01/15 00:52:43;;;;;;;;;;;;;;;6.13;100.00;100165.97;291995;33;6102;-77
2023/01/15 00:52:53;;;;;;;;;;;;;;;6.14;100.00;100162.50;293414;33;764;-77
2023/01/15 00:53:03;;;;;;;;;;;;;;;6.17;100.00;100162.44;284143;34;6234;-77
2023/01/15 00:53:13;;;;;;;;;;;;;;;6.16;100.00;100165.06;282412;33;6413;-77
2023/01/15 00:53:23;;;;;;;;;;;;;;;6.17;100.00;100162.44;282942;34;4376;-77
2023/01/15 00:53:34;;;;;;;;;;;;;;;6.18;100.00;100161.56;287397;33;7153;-78
2023/01/15 00:53:44;;;;;;;;;;;;;;;6.19;100.00;100160.69;286691;34;5316;-77
2023/01/15 00:53:54;;;;;;;;;;;;;;;6.20;100.00;100165.00;284008;34;4775;-77
2023/01/15 00:54:04;;;;;;;;;;;;;;;6.21;100.00;100164.13;287874;34;4513;-79
2023/01/15 00:54:15;;;;;;;;;;;;;;;6.24;100.00;100168.44;284783;34;5073;-78
2023/01/15 00:54:25;;;;;;;;;;;;;;;6.23;100.00;100162.38;286900;34;4467;-78
2023/01/15 00:54:35;;;;;;;;;;;;;;;6.26;100.00;100164.06;281141;34;6102;-77
2023/01/15 00:56:33;;;;;;;;;;;;;;;6.31;100.00;100160.53;2485965;27;19923;-78
2023/01/15 00:56:43;;;;;;;;;;;;;;;6.30;100.00;100166.59;349073;28;5636;-77
2023/01/15 00:56:53;;;;;;;;;;;;;;;6.24;100.00;100161.50;347823;28;3291;-77
2023/01/15 00:57:04;;;;;;;;;;;;;;;6.20;100.00;100159.81;345803;28;5495;-77
2023/01/15 00:57:14;;;;;;;;;;;;;;;6.21;100.00;100156.34;347906;28;1397;-77
2023/01/15 00:57:24;;;;;;;;;;;;;;;6.20;100.00;100165.00;347849;28;1406;-78
2023/01/15 00:57:35;;;;;;;;;;;;;;;6.22;100.00;100163.25;347977;28;780;-77
2023/01/15 00:57:46;;;;;;;;;;;;;;;6.23;100.00;100164.13;349910;28;1258;-77
2023/01/15 00:57:56;;;;;;;;;;;;;;;6.22;100.00;100165.84;349024;28;4024;-77
2023/01/15 00:58:06;;;;;;;;;;;;;;;6.22;100.00;100163.25;347773;28;3579;-76
2023/01/15 00:58:16;;;;;;;;;;;;;;;6.24;100.00;100163.22;345836;28;3816;-76
2023/01/15 00:58:27;;;;;;;;;;;;;;;6.22;100.00;100160.66;346869;28;3044;-78
2023/01/15 00:58:37;;;;;;;;;;;;;;;6.23;100.00;100164.13;344731;28;3554;-77
2023/01/15 00:58:47;;;;;;;;;;;;;;;6.23;100.00;100164.13;347070;28;3386;-77
2023/01/15 00:58:59;;;;;;;;;;;;;;;6.21;100.00;100163.28;347885;28;3495;-76
2023/01/15 00:59:10;;;;;;;;;;;;;;;6.20;100.00;100162.41;350414;28;3242;-79
2023/01/15 00:59:20;;;;;;;;;;;;;;;6.20;100.00;100157.22;348692;28;5789;-78
2023/01/15 00:59:30;;;;;;;;;;;;;;;6.22;100.00;100154.59;347686;28;3249;-78
2023/01/15 00:59:40;;;;;;;;;;;;;;;6.23;100.00;100157.16;345358;28;4025;-78
2023/01/15 00:59:51;;;;;;;;;;;;;;;6.24;100.00;100163.22;346090;28;3385;-78
2023/01/15 01:00:01;;;;;;;;;;;;;;;6.20;100.00;100157.22;348852;28;3947;-77
2023/01/15 01:00:11;;;;;;;;;;;;;;;6.19;100.00;100160.69;351066;28;6399;-78
2023/01/15 01:00:22;;;;;;;;;;;;;;;6.15;100.00;100164.22;348563;28;5893;-78
2023/01/15 01:00:32;;;;;;;;;;;;;;;6.13;100.00;100155.59;351773;28;3759;-78
2023/01/15 01:00:42;;;;;;;;;;;;;;;6.12;100.00;100153.88;348806;28;3686;-78
2023/01/15 01:00:54;;;;;;;;;;;;;;;6.11;100.00;100157.34;346509;28;3208;-78
2023/01/15 01:01:04;;;;;;;;;;;;;;;6.10;100.00;100153.03;345548;28;3883;-78
2023/01/15 01:01:14;;;;;;;;;;;;;;;6.11;100.00;100156.47;346523;28;3229;-79
2023/01/15 01:01:24;;;;;;;;;;;;;;;6.12;100.00;100153.00;345990;28;3740;-78
2023/01/15 01:01:34;;;;;;;;;;;;;;;6.14;100.00;100152.09;345793;28;5833;-78
2023/01/15 01:01:45;;;;;;;;;;;;;;;6.17;100.00;100157.25;343565;28;3533;-76
2023/01/15 01:01:55;;;;;;;;;;;;;;;6.18;100.00;100158.13;343362;28;3994;-78
2023/01/15 01:02:05;;;;;;;;;;;;;;;6.20;100.00;100156.34;344507;28;3816;-77
2023/01/15 01:02:16;;;;;;;;;;;;;;;6.21;100.00;100153.75;345154;28;3296;-79
2023/01/15 01:02:26;;;;;;;;;;;;;;;6.21;100.00;100164.13;346727;28;3710;-78
2023/01/15 01:02:36;;;;;;;;;;;;;;;6.19;100.00;100158.09;348690;28;3317;-78
2023/01/15 01:02:46;;;;;;;;;;;;;;;6.17;100.00;100161.59;342847;28;3836;-77
2023/01/15 01:02:57;;;;;;;;;;;;;;;6.14;100.00;100154.69;339021;28;5833;-79
2023/01/15 01:03:07;;;;;;;;;;;;;;;6.13;100.00;100159.91;338672;29;3929;-78
2023/01/15 01:03:17;;;;;;;;;;;;;;;6.15;100.00;100161.63;336889;29;3164;-77
2023/01/15 01:03:27;;;;;;;;;;;;;;;6.17;100.00;100154.66;339472;28;3878;-77
2023/01/15 01:03:37;;;;;;;;;;;;;;;6.19;100.00;100162.44;342417;28;5970;-78
2023/01/15 01:03:51;;;;;;;;;;;;;;;6.21;100.00;100161.53;343880;28;1020;-79
2023/01/15 01:04:01;;;;;;;;;;;;;;;6.23;100.00;100153.72;343196;28;3571;-78
2023/01/15 01:04:11;;;;;;;;;;;;;;;6.23;100.00;100159.78;345424;28;3794;-78
2023/01/15 01:04:22;;;;;;;;;;;;;;;6.23;100.00;100159.78;341685;28;3291;-78
2023/01/15 01:04:32;;;;;;;;;;;;;;;6.22;100.00;100155.47;343980;28;3859;-78
2023/01/15 01:04:42;;;;;;;;;;;;;;;6.20;100.00;100154.63;338665;28;3739;-78
2023/01/15 01:04:52;;;;;;;;;;;;;;;6.20;100.00;100162.41;337029;29;3669;-78
2023/01/15 01:05:03;;;;;;;;;;;;;;;6.20;100.00;100161.56;337570;29;3578;-78
2023/01/15 01:05:13;;;;;;;;;;;;;;;6.19;100.00;100150.31;337115;29;3919;-78